sensor_id;sensor_type;location;lat;lon;timestamp;P1;durP1;ratioP1;P2;durP2;ratioP2
8640;SDS011;4358;42.100;25.222;2022-08-21T00:01:22;0.80;;;0.80;;
8640;SDS011;4358;42.100;25.222;2022-08-21T00:03:53;1.17;;;1.07;;
8640;SDS011;4358;42.100;25.222;2022-08-21T00:06:21;0.80;;;0.80;;
8640;SDS011;4358;42.100;25.222;2022-08-21T00:08:49;2.67;;;1.07;;
8640;SDS011;4358;42.100;25.222;2022-08-21T00:11:16;1.07;;;1.03;;
8640;SDS011;4358;42.100;25.222;2022-08-21T00:13:45;1.30;;;1.20;;
8640;SDS011;4358;42.100;25.222;2022-08-21T00:16:12;1.57;;;1.27;;
8640;SDS011;4358;42.100;25.222;2022-08-21T00:18:39;1.13;;;0.90;;
8640;SDS011;4358;42.100;25.222;2022-08-21T00:21:06;1.20;;;1.10;;
8640;SDS011;4358;42.100;25.222;2022-08-21T00:23:33;1.20;;;1.10;;
8640;SDS011;4358;42.100;25.222;2022-08-21T00:26:01;0.80;;;0.80;;
8640;SDS011;4358;42.100;25.222;2022-08-21T00:28:27;1.30;;;1.00;;
8640;SDS011;4358;42.100;25.222;2022-08-21T00:30:56;0.90;;;0.80;;
8640;SDS011;4358;42.100;25.222;2022-08-21T00:33:24;1.10;;;1.03;;
8640;SDS011;4358;42.100;25.222;2022-08-21T00:35:51;0.57;;;0.57;;
8640;SDS011;4358;42.100;25.222;2022-08-21T00:38:19;1.70;;;0.80;;
8640;SDS011;4358;42.100;25.222;2022-08-21T00:40:48;1.20;;;1.10;;
8640;SDS011;4358;42.100;25.222;2022-08-21T00:43:18;0.70;;;0.70;;
8640;SDS011;4358;42.100;25.222;2022-08-21T00:45:48;0.90;;;0.90;;
8640;SDS011;4358;42.100;25.222;2022-08-21T00:48:17;2.17;;;0.70;;
8640;SDS011;4358;42.100;25.222;2022-08-21T00:50:46;2.17;;;1.70;;
8640;SDS011;4358;42.100;25.222;2022-08-21T00:53:18;1.27;;;1.17;;
8640;SDS011;4358;42.100;25.222;2022-08-21T00:55:45;1.50;;;1.30;;
8640;SDS011;4358;42.100;25.222;2022-08-21T00:58:13;1.30;;;1.20;;
8640;SDS011;4358;42.100;25.222;2022-08-21T01:00:42;1.80;;;1.70;;
8640;SDS011;4358;42.100;25.222;2022-08-21T01:03:13;1.40;;;1.30;;
8640;SDS011;4358;42.100;25.222;2022-08-21T01:05:43;2.47;;;1.60;;
8640;SDS011;4358;42.100;25.222;2022-08-21T01:08:11;2.03;;;1.10;;
8640;SDS011;4358;42.100;25.222;2022-08-21T01:10:39;1.10;;;1.00;;
8640;SDS011;4358;42.100;25.222;2022-08-21T01:13:07;2.80;;;0.90;;
8640;SDS011;4358;42.100;25.222;2022-08-21T01:15:38;1.40;;;1.30;;
8640;SDS011;4358;42.100;25.222;2022-08-21T01:18:09;1.57;;;1.27;;
8640;SDS011;4358;42.100;25.222;2022-08-21T01:20:38;1.50;;;1.13;;
8640;SDS011;4358;42.100;25.222;2022-08-21T01:23:09;1.23;;;0.90;;
8640;SDS011;4358;42.100;25.222;2022-08-21T01:25:37;1.70;;;1.60;;
8640;SDS011;4358;42.100;25.222;2022-08-21T01:28:04;1.30;;;1.20;;
8640;SDS011;4358;42.100;25.222;2022-08-21T01:30:35;1.57;;;1.20;;
8640;SDS011;4358;42.100;25.222;2022-08-21T01:33:03;1.10;;;1.00;;
8640;SDS011;4358;42.100;25.222;2022-08-21T01:35:30;0.90;;;0.90;;
8640;SDS011;4358;42.100;25.222;2022-08-21T01:37:57;1.30;;;1.20;;
8640;SDS011;4358;42.100;25.222;2022-08-21T01:40:26;1.33;;;1.20;;
8640;SDS011;4358;42.100;25.222;2022-08-21T01:42:53;0.87;;;0.70;;
8640;SDS011;4358;42.100;25.222;2022-08-21T01:45:20;0.80;;;0.80;;
8640;SDS011;4358;42.100;25.222;2022-08-21T01:47:47;1.87;;;1.23;;
8640;SDS011;4358;42.100;25.222;2022-08-21T01:50:15;0.80;;;0.80;;
8640;SDS011;4358;42.100;25.222;2022-08-21T01:52:45;1.80;;;1.20;;
8640;SDS011;4358;42.100;25.222;2022-08-21T01:55:13;5.97;;;1.37;;
8640;SDS011;4358;42.100;25.222;2022-08-21T01:57:43;0.80;;;0.80;;
8640;SDS011;4358;42.100;25.222;2022-08-21T02:00:11;3.60;;;1.20;;
8640;SDS011;4358;42.100;25.222;2022-08-21T02:02:40;2.50;;;1.20;;
8640;SDS011;4358;42.100;25.222;2022-08-21T02:05:08;1.70;;;1.60;;
8640;SDS011;4358;42.100;25.222;2022-08-21T02:07:37;4.10;;;2.10;;
8640;SDS011;4358;42.100;25.222;2022-08-21T02:10:05;1.40;;;1.30;;
8640;SDS011;4358;42.100;25.222;2022-08-21T02:12:34;1.57;;;1.17;;
8640;SDS011;4358;42.100;25.222;2022-08-21T02:15:02;1.40;;;1.30;;
8640;SDS011;4358;42.100;25.222;2022-08-21T02:17:36;1.43;;;1.33;;
8640;SDS011;4358;42.100;25.222;2022-08-21T02:20:04;1.57;;;1.30;;
8640;SDS011;4358;42.100;25.222;2022-08-21T02:22:32;1.43;;;1.33;;
8640;SDS011;4358;42.100;25.222;2022-08-21T02:24:59;1.67;;;1.53;;
8640;SDS011;4358;42.100;25.222;2022-08-21T02:27:26;3.83;;;1.60;;
8640;SDS011;4358;42.100;25.222;2022-08-21T02:29:53;1.80;;;1.70;;
8640;SDS011;4358;42.100;25.222;2022-08-21T02:32:23;3.53;;;1.67;;
8640;SDS011;4358;42.100;25.222;2022-08-21T02:34:50;1.30;;;1.13;;
8640;SDS011;4358;42.100;25.222;2022-08-21T02:37:17;1.60;;;1.50;;
8640;SDS011;4358;42.100;25.222;2022-08-21T02:39:44;1.63;;;1.53;;
8640;SDS011;4358;42.100;25.222;2022-08-21T02:42:11;1.50;;;1.40;;
8640;SDS011;4358;42.100;25.222;2022-08-21T02:44:38;2.13;;;1.80;;
8640;SDS011;4358;42.100;25.222;2022-08-21T02:47:05;1.60;;;1.50;;
8640;SDS011;4358;42.100;25.222;2022-08-21T02:49:34;1.40;;;1.30;;
8640;SDS011;4358;42.100;25.222;2022-08-21T02:52:01;1.60;;;1.50;;
8640;SDS011;4358;42.100;25.222;2022-08-21T02:54:28;1.93;;;1.73;;
8640;SDS011;4358;42.100;25.222;2022-08-21T02:56:55;2.67;;;1.90;;
8640;SDS011;4358;42.100;25.222;2022-08-21T02:59:22;1.50;;;1.40;;
8640;SDS011;4358;42.100;25.222;2022-08-21T03:01:49;1.47;;;1.33;;
8640;SDS011;4358;42.100;25.222;2022-08-21T03:04:16;2.90;;;2.30;;
8640;SDS011;4358;42.100;25.222;2022-08-21T03:06:44;1.77;;;1.67;;
8640;SDS011;4358;42.100;25.222;2022-08-21T03:09:12;1.47;;;1.37;;
8640;SDS011;4358;42.100;25.222;2022-08-21T03:11:39;3.00;;;1.83;;
8640;SDS011;4358;42.100;25.222;2022-08-21T03:14:06;2.40;;;1.70;;
8640;SDS011;4358;42.100;25.222;2022-08-21T03:16:33;1.90;;;1.63;;
8640;SDS011;4358;42.100;25.222;2022-08-21T03:19:00;1.70;;;1.60;;
8640;SDS011;4358;42.100;25.222;2022-08-21T03:21:28;1.43;;;1.33;;
8640;SDS011;4358;42.100;25.222;2022-08-21T03:23:56;2.40;;;1.60;;
8640;SDS011;4358;42.100;25.222;2022-08-21T03:26:23;7.47;;;1.73;;
8640;SDS011;4358;42.100;25.222;2022-08-21T03:28:50;2.73;;;1.53;;
8640;SDS011;4358;42.100;25.222;2022-08-21T03:31:18;3.50;;;1.80;;
8640;SDS011;4358;42.100;25.222;2022-08-21T03:33:46;1.53;;;1.43;;
8640;SDS011;4358;42.100;25.222;2022-08-21T03:36:13;1.60;;;1.50;;
8640;SDS011;4358;42.100;25.222;2022-08-21T03:38:40;4.50;;;2.03;;
8640;SDS011;4358;42.100;25.222;2022-08-21T03:41:08;2.27;;;1.83;;
8640;SDS011;4358;42.100;25.222;2022-08-21T03:43:35;2.30;;;1.90;;
8640;SDS011;4358;42.100;25.222;2022-08-21T03:46:04;1.60;;;1.50;;
8640;SDS011;4358;42.100;25.222;2022-08-21T03:48:33;1.33;;;1.23;;
8640;SDS011;4358;42.100;25.222;2022-08-21T03:51:01;2.20;;;1.90;;
8640;SDS011;4358;42.100;25.222;2022-08-21T03:53:28;2.93;;;1.47;;
8640;SDS011;4358;42.100;25.222;2022-08-21T03:55:55;1.40;;;1.30;;
8640;SDS011;4358;42.100;25.222;2022-08-21T03:58:25;3.90;;;1.83;;
8640;SDS011;4358;42.100;25.222;2022-08-21T04:00:55;1.63;;;1.50;;
8640;SDS011;4358;42.100;25.222;2022-08-21T04:03:23;2.40;;;1.23;;
8640;SDS011;4358;42.100;25.222;2022-08-21T04:05:51;1.30;;;1.20;;
8640;SDS011;4358;42.100;25.222;2022-08-21T04:08:18;1.80;;;1.37;;
8640;SDS011;4358;42.100;25.222;2022-08-21T04:10:46;1.43;;;1.33;;
8640;SDS011;4358;42.100;25.222;2022-08-21T04:13:15;1.97;;;1.80;;
8640;SDS011;4358;42.100;25.222;2022-08-21T04:15:43;1.70;;;1.60;;
8640;SDS011;4358;42.100;25.222;2022-08-21T04:18:10;1.97;;;1.77;;
8640;SDS011;4358;42.100;25.222;2022-08-21T04:20:37;1.40;;;1.30;;
8640;SDS011;4358;42.100;25.222;2022-08-21T04:23:04;3.30;;;1.63;;
8640;SDS011;4358;42.100;25.222;2022-08-21T04:25:32;1.77;;;1.67;;
8640;SDS011;4358;42.100;25.222;2022-08-21T04:27:59;1.60;;;1.50;;
8640;SDS011;4358;42.100;25.222;2022-08-21T04:30:26;1.20;;;1.13;;
8640;SDS011;4358;42.100;25.222;2022-08-21T04:32:55;1.67;;;1.50;;
8640;SDS011;4358;42.100;25.222;2022-08-21T04:35:24;3.30;;;1.77;;
8640;SDS011;4358;42.100;25.222;2022-08-21T04:37:52;1.63;;;1.53;;
8640;SDS011;4358;42.100;25.222;2022-08-21T04:40:20;1.17;;;1.07;;
8640;SDS011;4358;42.100;25.222;2022-08-21T04:42:48;2.07;;;1.87;;
8640;SDS011;4358;42.100;25.222;2022-08-21T04:45:18;1.80;;;1.53;;
8640;SDS011;4358;42.100;25.222;2022-08-21T04:47:46;2.30;;;2.10;;
8640;SDS011;4358;42.100;25.222;2022-08-21T04:50:16;3.63;;;1.47;;
8640;SDS011;4358;42.100;25.222;2022-08-21T04:52:43;1.80;;;1.60;;
8640;SDS011;4358;42.100;25.222;2022-08-21T04:55:10;4.10;;;1.70;;
8640;SDS011;4358;42.100;25.222;2022-08-21T04:57:38;2.30;;;2.10;;
8640;SDS011;4358;42.100;25.222;2022-08-21T05:00:07;1.97;;;1.73;;
8640;SDS011;4358;42.100;25.222;2022-08-21T05:02:36;1.47;;;1.30;;
8640;SDS011;4358;42.100;25.222;2022-08-21T05:05:03;1.90;;;1.70;;
8640;SDS011;4358;42.100;25.222;2022-08-21T05:07:32;1.30;;;1.13;;
8640;SDS011;4358;42.100;25.222;2022-08-21T05:10:00;1.83;;;1.70;;
8640;SDS011;4358;42.100;25.222;2022-08-21T05:12:27;5.93;;;1.97;;
8640;SDS011;4358;42.100;25.222;2022-08-21T05:14:55;3.40;;;2.50;;
8640;SDS011;4358;42.100;25.222;2022-08-21T05:17:22;1.97;;;1.60;;
8640;SDS011;4358;42.100;25.222;2022-08-21T05:19:49;1.83;;;1.73;;
8640;SDS011;4358;42.100;25.222;2022-08-21T05:22:19;2.77;;;1.80;;
8640;SDS011;4358;42.100;25.222;2022-08-21T05:24:48;2.00;;;1.80;;
8640;SDS011;4358;42.100;25.222;2022-08-21T05:27:14;1.77;;;1.67;;
8640;SDS011;4358;42.100;25.222;2022-08-21T05:29:41;2.07;;;1.80;;
8640;SDS011;4358;42.100;25.222;2022-08-21T05:32:09;2.43;;;2.10;;
8640;SDS011;4358;42.100;25.222;2022-08-21T05:34:36;2.63;;;1.77;;
8640;SDS011;4358;42.100;25.222;2022-08-21T05:37:04;2.90;;;2.47;;
8640;SDS011;4358;42.100;25.222;2022-08-21T05:39:31;2.27;;;2.07;;
8640;SDS011;4358;42.100;25.222;2022-08-21T05:41:59;3.63;;;2.23;;
8640;SDS011;4358;42.100;25.222;2022-08-21T05:44:26;3.30;;;2.57;;
8640;SDS011;4358;42.100;25.222;2022-08-21T05:46:53;2.83;;;2.27;;
8640;SDS011;4358;42.100;25.222;2022-08-21T05:49:20;2.10;;;1.87;;
8640;SDS011;4358;42.100;25.222;2022-08-21T05:51:47;2.10;;;1.90;;
8640;SDS011;4358;42.100;25.222;2022-08-21T05:54:14;2.10;;;1.90;;
8640;SDS011;4358;42.100;25.222;2022-08-21T05:56:41;2.10;;;1.90;;
8640;SDS011;4358;42.100;25.222;2022-08-21T05:59:11;2.47;;;2.10;;
8640;SDS011;4358;42.100;25.222;2022-08-21T06:01:38;3.03;;;2.17;;
8640;SDS011;4358;42.100;25.222;2022-08-21T06:04:06;2.03;;;1.80;;
8640;SDS011;4358;42.100;25.222;2022-08-21T06:06:33;2.33;;;1.73;;
8640;SDS011;4358;42.100;25.222;2022-08-21T06:09:00;2.47;;;1.70;;
8640;SDS011;4358;42.100;25.222;2022-08-21T06:11:27;3.87;;;3.10;;
8640;SDS011;4358;42.100;25.222;2022-08-21T06:13:54;2.00;;;1.60;;
8640;SDS011;4358;42.100;25.222;2022-08-21T06:16:22;2.30;;;2.07;;
8640;SDS011;4358;42.100;25.222;2022-08-21T06:18:49;2.70;;;1.90;;
8640;SDS011;4358;42.100;25.222;2022-08-21T06:21:16;2.87;;;2.57;;
8640;SDS011;4358;42.100;25.222;2022-08-21T06:23:43;1.90;;;1.73;;
8640;SDS011;4358;42.100;25.222;2022-08-21T06:26:11;2.13;;;1.83;;
8640;SDS011;4358;42.100;25.222;2022-08-21T06:28:39;2.20;;;2.00;;
8640;SDS011;4358;42.100;25.222;2022-08-21T06:31:11;1.47;;;1.37;;
8640;SDS011;4358;42.100;25.222;2022-08-21T06:33:42;1.80;;;1.30;;
8640;SDS011;4358;42.100;25.222;2022-08-21T06:36:09;1.37;;;1.27;;
8640;SDS011;4358;42.100;25.222;2022-08-21T06:38:36;2.97;;;1.40;;
8640;SDS011;4358;42.100;25.222;2022-08-21T06:41:03;2.73;;;1.50;;
8640;SDS011;4358;42.100;25.222;2022-08-21T06:43:30;2.53;;;2.00;;
8640;SDS011;4358;42.100;25.222;2022-08-21T06:45:57;2.57;;;2.10;;
8640;SDS011;4358;42.100;25.222;2022-08-21T06:48:24;2.20;;;1.97;;
8640;SDS011;4358;42.100;25.222;2022-08-21T06:50:52;3.43;;;2.30;;
8640;SDS011;4358;42.100;25.222;2022-08-21T06:53:21;2.33;;;2.00;;
8640;SDS011;4358;42.100;25.222;2022-08-21T06:55:48;2.33;;;2.13;;
8640;SDS011;4358;42.100;25.222;2022-08-21T06:58:15;2.67;;;1.80;;
8640;SDS011;4358;42.100;25.222;2022-08-21T07:00:43;3.33;;;2.63;;
8640;SDS011;4358;42.100;25.222;2022-08-21T07:03:17;5.57;;;2.80;;
8640;SDS011;4358;42.100;25.222;2022-08-21T07:05:45;2.70;;;2.30;;
8640;SDS011;4358;42.100;25.222;2022-08-21T07:08:13;2.90;;;2.03;;
8640;SDS011;4358;42.100;25.222;2022-08-21T07:10:41;2.70;;;1.77;;
8640;SDS011;4358;42.100;25.222;2022-08-21T07:13:08;3.53;;;2.10;;
8640;SDS011;4358;42.100;25.222;2022-08-21T07:15:35;2.60;;;2.40;;
8640;SDS011;4358;42.100;25.222;2022-08-21T07:18:02;3.50;;;3.03;;
8640;SDS011;4358;42.100;25.222;2022-08-21T07:20:29;3.00;;;2.70;;
8640;SDS011;4358;42.100;25.222;2022-08-21T07:22:58;2.90;;;2.13;;
8640;SDS011;4358;42.100;25.222;2022-08-21T07:25:29;2.30;;;1.87;;
8640;SDS011;4358;42.100;25.222;2022-08-21T07:27:56;2.90;;;1.87;;
8640;SDS011;4358;42.100;25.222;2022-08-21T07:30:23;1.70;;;1.60;;
8640;SDS011;4358;42.100;25.222;2022-08-21T07:32:51;2.53;;;1.90;;
8640;SDS011;4358;42.100;25.222;2022-08-21T07:35:18;2.67;;;2.03;;
8640;SDS011;4358;42.100;25.222;2022-08-21T07:37:46;2.83;;;2.03;;
8640;SDS011;4358;42.100;25.222;2022-08-21T07:40:13;3.37;;;1.73;;
8640;SDS011;4358;42.100;25.222;2022-08-21T07:42:44;3.00;;;1.80;;
8640;SDS011;4358;42.100;25.222;2022-08-21T07:45:15;2.40;;;1.87;;
8640;SDS011;4358;42.100;25.222;2022-08-21T07:47:42;1.90;;;1.80;;
8640;SDS011;4358;42.100;25.222;2022-08-21T07:50:09;3.13;;;2.10;;
8640;SDS011;4358;42.100;25.222;2022-08-21T07:52:37;3.10;;;2.00;;
8640;SDS011;4358;42.100;25.222;2022-08-21T07:55:05;2.47;;;2.13;;
8640;SDS011;4358;42.100;25.222;2022-08-21T07:57:33;2.50;;;1.90;;
8640;SDS011;4358;42.100;25.222;2022-08-21T08:00:02;2.50;;;2.13;;
8640;SDS011;4358;42.100;25.222;2022-08-21T08:02:30;4.23;;;2.70;;
8640;SDS011;4358;42.100;25.222;2022-08-21T08:04:58;2.33;;;2.13;;
8640;SDS011;4358;42.100;25.222;2022-08-21T08:07:26;3.80;;;2.67;;
8640;SDS011;4358;42.100;25.222;2022-08-21T08:09:53;2.90;;;2.60;;
8640;SDS011;4358;42.100;25.222;2022-08-21T08:12:19;3.03;;;2.47;;
8640;SDS011;4358;42.100;25.222;2022-08-21T08:14:47;3.27;;;2.97;;
8640;SDS011;4358;42.100;25.222;2022-08-21T08:17:15;3.07;;;2.50;;
8640;SDS011;4358;42.100;25.222;2022-08-21T08:19:44;3.50;;;2.20;;
8640;SDS011;4358;42.100;25.222;2022-08-21T08:22:13;4.33;;;2.90;;
8640;SDS011;4358;42.100;25.222;2022-08-21T08:24:41;6.40;;;2.77;;
8640;SDS011;4358;42.100;25.222;2022-08-21T08:27:08;3.67;;;3.37;;
8640;SDS011;4358;42.100;25.222;2022-08-21T08:29:35;3.33;;;3.00;;
8640;SDS011;4358;42.100;25.222;2022-08-21T08:32:02;4.27;;;3.07;;
8640;SDS011;4358;42.100;25.222;2022-08-21T08:36:59;2.80;;;2.60;;
8640;SDS011;4358;42.100;25.222;2022-08-21T08:39:26;3.13;;;2.23;;
8640;SDS011;4358;42.100;25.222;2022-08-21T08:41:54;5.23;;;2.80;;
8640;SDS011;4358;42.100;25.222;2022-08-21T08:44:31;3.90;;;3.13;;
8640;SDS011;4358;42.100;25.222;2022-08-21T08:46:58;2.87;;;2.57;;
8640;SDS011;4358;42.100;25.222;2022-08-21T08:49:27;3.33;;;2.67;;
8640;SDS011;4358;42.100;25.222;2022-08-21T08:52:00;3.17;;;2.87;;
8640;SDS011;4358;42.100;25.222;2022-08-21T08:54:31;3.30;;;3.00;;
8640;SDS011;4358;42.100;25.222;2022-08-21T08:57:03;4.03;;;3.63;;
8640;SDS011;4358;42.100;25.222;2022-08-21T08:59:38;4.93;;;3.43;;
8640;SDS011;4358;42.100;25.222;2022-08-21T09:02:07;3.80;;;3.37;;
8640;SDS011;4358;42.100;25.222;2022-08-21T09:04:37;4.17;;;3.53;;
8640;SDS011;4358;42.100;25.222;2022-08-21T09:07:08;4.00;;;3.60;;
8640;SDS011;4358;42.100;25.222;2022-08-21T09:09:47;3.47;;;3.07;;
8640;SDS011;4358;42.100;25.222;2022-08-21T09:12:25;3.90;;;3.13;;
8640;SDS011;4358;42.100;25.222;2022-08-21T09:15:06;4.43;;;3.87;;
8640;SDS011;4358;42.100;25.222;2022-08-21T09:17:46;5.43;;;3.43;;
8640;SDS011;4358;42.100;25.222;2022-08-21T09:20:28;4.03;;;2.90;;
8640;SDS011;4358;42.100;25.222;2022-08-21T09:23:06;3.77;;;3.37;;
8640;SDS011;4358;42.100;25.222;2022-08-21T09:25:42;3.30;;;2.80;;
8640;SDS011;4358;42.100;25.222;2022-08-21T09:28:19;4.37;;;3.90;;
8640;SDS011;4358;42.100;25.222;2022-08-21T09:30:46;4.30;;;3.77;;
8640;SDS011;4358;42.100;25.222;2022-08-21T09:33:13;4.70;;;3.63;;
8640;SDS011;4358;42.100;25.222;2022-08-21T09:35:50;4.67;;;3.57;;
8640;SDS011;4358;42.100;25.222;2022-08-21T09:38:27;5.10;;;4.00;;
8640;SDS011;4358;42.100;25.222;2022-08-21T09:40:58;5.80;;;4.67;;
8640;SDS011;4358;42.100;25.222;2022-08-21T09:43:27;3.80;;;3.40;;
8640;SDS011;4358;42.100;25.222;2022-08-21T09:46:02;3.53;;;3.23;;
8640;SDS011;4358;42.100;25.222;2022-08-21T09:48:38;3.87;;;3.30;;
8640;SDS011;4358;42.100;25.222;2022-08-21T09:51:07;5.30;;;4.00;;
8640;SDS011;4358;42.100;25.222;2022-08-21T09:53:38;5.03;;;3.43;;
8640;SDS011;4358;42.100;25.222;2022-08-21T09:56:16;3.93;;;3.40;;
8640;SDS011;4358;42.100;25.222;2022-08-21T09:59:12;3.37;;;2.97;;
8640;SDS011;4358;42.100;25.222;2022-08-21T10:01:42;4.60;;;3.63;;
8640;SDS011;4358;42.100;25.222;2022-08-21T10:04:10;3.73;;;3.33;;
8640;SDS011;4358;42.100;25.222;2022-08-21T10:06:38;3.40;;;3.10;;
8640;SDS011;4358;42.100;25.222;2022-08-21T10:09:08;3.80;;;3.50;;
8640;SDS011;4358;42.100;25.222;2022-08-21T10:11:36;3.50;;;2.90;;
8640;SDS011;4358;42.100;25.222;2022-08-21T10:14:07;3.63;;;3.33;;
8640;SDS011;4358;42.100;25.222;2022-08-21T10:16:46;3.13;;;2.83;;
8640;SDS011;4358;42.100;25.222;2022-08-21T10:19:22;3.33;;;3.03;;
8640;SDS011;4358;42.100;25.222;2022-08-21T10:21:59;2.97;;;2.43;;
8640;SDS011;4358;42.100;25.222;2022-08-21T10:24:33;8.37;;;3.40;;
8640;SDS011;4358;42.100;25.222;2022-08-21T10:27:12;9.27;;;3.63;;
8640;SDS011;4358;42.100;25.222;2022-08-21T10:29:50;3.37;;;2.60;;
8640;SDS011;4358;42.100;25.222;2022-08-21T10:35:22;2.73;;;2.47;;
8640;SDS011;4358;42.100;25.222;2022-08-21T10:37:59;2.77;;;2.47;;
8640;SDS011;4358;42.100;25.222;2022-08-21T10:40:40;2.60;;;2.40;;
8640;SDS011;4358;42.100;25.222;2022-08-21T10:43:16;3.87;;;2.50;;
8640;SDS011;4358;42.100;25.222;2022-08-21T10:45:56;3.87;;;2.87;;
8640;SDS011;4358;42.100;25.222;2022-08-21T10:48:36;4.27;;;2.33;;
8640;SDS011;4358;42.100;25.222;2022-08-21T10:51:09;2.80;;;2.53;;
8640;SDS011;4358;42.100;25.222;2022-08-21T10:53:41;3.03;;;2.53;;
8640;SDS011;4358;42.100;25.222;2022-08-21T10:56:19;4.87;;;3.23;;
8640;SDS011;4358;42.100;25.222;2022-08-21T11:01:43;4.00;;;3.60;;
8640;SDS011;4358;42.100;25.222;2022-08-21T11:04:16;3.53;;;2.83;;
8640;SDS011;4358;42.100;25.222;2022-08-21T11:06:47;3.00;;;2.70;;
8640;SDS011;4358;42.100;25.222;2022-08-21T11:09:19;3.60;;;3.23;;
8640;SDS011;4358;42.100;25.222;2022-08-21T11:11:52;4.77;;;3.47;;
8640;SDS011;4358;42.100;25.222;2022-08-21T11:14:24;4.37;;;3.07;;
8640;SDS011;4358;42.100;25.222;2022-08-21T11:17:02;5.03;;;3.13;;
8640;SDS011;4358;42.100;25.222;2022-08-21T11:19:35;3.10;;;2.80;;
8640;SDS011;4358;42.100;25.222;2022-08-21T11:22:11;4.20;;;3.33;;
8640;SDS011;4358;42.100;25.222;2022-08-21T11:24:43;3.70;;;3.37;;
8640;SDS011;4358;42.100;25.222;2022-08-21T11:27:17;4.80;;;3.73;;
8640;SDS011;4358;42.100;25.222;2022-08-21T11:29:50;6.20;;;3.70;;
8640;SDS011;4358;42.100;25.222;2022-08-21T11:32:38;6.20;;;3.87;;
8640;SDS011;4358;42.100;25.222;2022-08-21T11:35:29;3.83;;;3.43;;
8640;SDS011;4358;42.100;25.222;2022-08-21T11:38:03;3.70;;;3.20;;
8640;SDS011;4358;42.100;25.222;2022-08-21T11:40:44;4.10;;;3.57;;
8640;SDS011;4358;42.100;25.222;2022-08-21T11:43:21;3.13;;;2.77;;
8640;SDS011;4358;42.100;25.222;2022-08-21T11:45:56;4.90;;;2.93;;
8640;SDS011;4358;42.100;25.222;2022-08-21T11:48:35;5.20;;;4.20;;
8640;SDS011;4358;42.100;25.222;2022-08-21T11:51:07;4.13;;;3.07;;
8640;SDS011;4358;42.100;25.222;2022-08-21T11:53:39;3.57;;;2.80;;
8640;SDS011;4358;42.100;25.222;2022-08-21T11:56:17;3.13;;;2.83;;
8640;SDS011;4358;42.100;25.222;2022-08-21T11:58:50;3.80;;;3.07;;
8640;SDS011;4358;42.100;25.222;2022-08-21T12:01:22;3.57;;;2.37;;
8640;SDS011;4358;42.100;25.222;2022-08-21T12:03:52;2.40;;;2.20;;
8640;SDS011;4358;42.100;25.222;2022-08-21T12:06:29;3.47;;;3.07;;
8640;SDS011;4358;42.100;25.222;2022-08-21T12:08:59;2.90;;;2.67;;
8640;SDS011;4358;42.100;25.222;2022-08-21T12:11:29;3.23;;;2.93;;
8640;SDS011;4358;42.100;25.222;2022-08-21T12:13:59;4.03;;;3.10;;
8640;SDS011;4358;42.100;25.222;2022-08-21T12:16:38;5.97;;;3.53;;
8640;SDS011;4358;42.100;25.222;2022-08-21T12:19:08;5.10;;;3.57;;
8640;SDS011;4358;42.100;25.222;2022-08-21T12:21:47;5.57;;;3.23;;
8640;SDS011;4358;42.100;25.222;2022-08-21T12:24:17;3.57;;;3.17;;
8640;SDS011;4358;42.100;25.222;2022-08-21T12:26:50;4.77;;;3.00;;
8640;SDS011;4358;42.100;25.222;2022-08-21T12:29:23;5.03;;;3.33;;
8640;SDS011;4358;42.100;25.222;2022-08-21T12:31:57;4.63;;;3.90;;
8640;SDS011;4358;42.100;25.222;2022-08-21T12:34:29;4.03;;;3.63;;
8640;SDS011;4358;42.100;25.222;2022-08-21T12:37:02;5.20;;;3.70;;
8640;SDS011;4358;42.100;25.222;2022-08-21T12:39:33;6.47;;;4.20;;
8640;SDS011;4358;42.100;25.222;2022-08-21T12:42:04;4.50;;;4.10;;
8640;SDS011;4358;42.100;25.222;2022-08-21T12:44:42;6.47;;;5.00;;
8640;SDS011;4358;42.100;25.222;2022-08-21T12:47:14;5.47;;;4.57;;
8640;SDS011;4358;42.100;25.222;2022-08-21T12:49:48;5.77;;;4.93;;
8640;SDS011;4358;42.100;25.222;2022-08-21T12:52:22;4.87;;;4.37;;
8640;SDS011;4358;42.100;25.222;2022-08-21T12:54:55;4.77;;;4.27;;
8640;SDS011;4358;42.100;25.222;2022-08-21T12:57:23;5.07;;;3.87;;
8640;SDS011;4358;42.100;25.222;2022-08-21T12:59:54;5.60;;;4.07;;
8640;SDS011;4358;42.100;25.222;2022-08-21T13:02:23;3.80;;;3.23;;
8640;SDS011;4358;42.100;25.222;2022-08-21T13:04:53;3.70;;;3.40;;
8640;SDS011;4358;42.100;25.222;2022-08-21T13:07:24;4.47;;;3.70;;
8640;SDS011;4358;42.100;25.222;2022-08-21T13:09:54;4.10;;;3.80;;
8640;SDS011;4358;42.100;25.222;2022-08-21T13:12:23;5.10;;;3.47;;
8640;SDS011;4358;42.100;25.222;2022-08-21T13:14:51;3.73;;;3.40;;
8640;SDS011;4358;42.100;25.222;2022-08-21T13:17:22;5.17;;;3.53;;
8640;SDS011;4358;42.100;25.222;2022-08-21T13:19:54;4.80;;;3.70;;
8640;SDS011;4358;42.100;25.222;2022-08-21T13:22:23;5.53;;;4.10;;
8640;SDS011;4358;42.100;25.222;2022-08-21T13:24:51;4.00;;;3.60;;
8640;SDS011;4358;42.100;25.222;2022-08-21T13:27:19;5.90;;;3.70;;
8640;SDS011;4358;42.100;25.222;2022-08-21T13:29:48;5.07;;;4.53;;
8640;SDS011;4358;42.100;25.222;2022-08-21T13:32:30;3.60;;;3.30;;
8640;SDS011;4358;42.100;25.222;2022-08-21T13:34:59;4.90;;;3.20;;
8640;SDS011;4358;42.100;25.222;2022-08-21T13:37:35;9.60;;;3.70;;
8640;SDS011;4358;42.100;25.222;2022-08-21T13:40:06;4.23;;;3.63;;
8640;SDS011;4358;42.100;25.222;2022-08-21T13:42:35;4.33;;;3.63;;
8640;SDS011;4358;42.100;25.222;2022-08-21T13:45:11;4.63;;;4.13;;
8640;SDS011;4358;42.100;25.222;2022-08-21T13:47:41;4.73;;;3.63;;
8640;SDS011;4358;42.100;25.222;2022-08-21T13:50:08;4.07;;;3.60;;
8640;SDS011;4358;42.100;25.222;2022-08-21T13:52:46;5.33;;;4.20;;
8640;SDS011;4358;42.100;25.222;2022-08-21T13:55:16;7.63;;;4.33;;
8640;SDS011;4358;42.100;25.222;2022-08-21T13:57:44;5.83;;;4.40;;
8640;SDS011;4358;42.100;25.222;2022-08-21T14:00:16;5.77;;;4.37;;
8640;SDS011;4358;42.100;25.222;2022-08-21T14:02:45;5.90;;;4.73;;
8640;SDS011;4358;42.100;25.222;2022-08-21T14:05:16;4.97;;;3.93;;
8640;SDS011;4358;42.100;25.222;2022-08-21T14:07:47;4.63;;;4.03;;
8640;SDS011;4358;42.100;25.222;2022-08-21T15:29:31;2.47;;;2.27;;
8640;SDS011;4358;42.100;25.222;2022-08-21T15:31:58;3.27;;;2.37;;
8640;SDS011;4358;42.100;25.222;2022-08-21T15:34:26;4.07;;;3.03;;
8640;SDS011;4358;42.100;25.222;2022-08-21T15:36:54;2.87;;;2.43;;
8640;SDS011;4358;42.100;25.222;2022-08-21T15:39:21;3.53;;;3.23;;
8640;SDS011;4358;42.100;25.222;2022-08-21T15:41:48;6.03;;;3.17;;
8640;SDS011;4358;42.100;25.222;2022-08-21T15:44:16;2.53;;;2.33;;
8640;SDS011;4358;42.100;25.222;2022-08-21T15:46:44;3.83;;;3.03;;
8640;SDS011;4358;42.100;25.222;2022-08-21T15:49:11;5.17;;;2.80;;
8640;SDS011;4358;42.100;25.222;2022-08-21T15:51:37;5.13;;;2.27;;
8640;SDS011;4358;42.100;25.222;2022-08-21T15:54:04;3.13;;;2.70;;
8640;SDS011;4358;42.100;25.222;2022-08-21T15:56:32;4.00;;;2.77;;
8640;SDS011;4358;42.100;25.222;2022-08-21T15:59:03;5.27;;;2.70;;
8640;SDS011;4358;42.100;25.222;2022-08-21T16:01:31;3.00;;;2.70;;
8640;SDS011;4358;42.100;25.222;2022-08-21T16:04:01;4.87;;;2.50;;
8640;SDS011;4358;42.100;25.222;2022-08-21T16:06:30;3.23;;;2.53;;
8640;SDS011;4358;42.100;25.222;2022-08-21T16:08:57;2.73;;;2.50;;
8640;SDS011;4358;42.100;25.222;2022-08-21T16:11:24;4.90;;;3.13;;
8640;SDS011;4358;42.100;25.222;2022-08-21T16:13:52;2.60;;;2.40;;
8640;SDS011;4358;42.100;25.222;2022-08-21T16:16:20;2.83;;;2.53;;
8640;SDS011;4358;42.100;25.222;2022-08-21T16:18:48;3.27;;;2.97;;
8640;SDS011;4358;42.100;25.222;2022-08-21T16:21:18;3.27;;;2.77;;
8640;SDS011;4358;42.100;25.222;2022-08-21T16:23:45;3.50;;;3.10;;
8640;SDS011;4358;42.100;25.222;2022-08-21T16:26:12;3.17;;;2.53;;
8640;SDS011;4358;42.100;25.222;2022-08-21T16:28:40;3.70;;;3.00;;
8640;SDS011;4358;42.100;25.222;2022-08-21T16:31:09;4.20;;;2.97;;
8640;SDS011;4358;42.100;25.222;2022-08-21T16:33:38;4.23;;;3.23;;
8640;SDS011;4358;42.100;25.222;2022-08-21T16:36:08;3.10;;;2.80;;
8640;SDS011;4358;42.100;25.222;2022-08-21T16:38:36;3.03;;;2.57;;
8640;SDS011;4358;42.100;25.222;2022-08-21T16:41:04;3.83;;;2.93;;
8640;SDS011;4358;42.100;25.222;2022-08-21T16:43:33;3.90;;;2.97;;